sensor_id;sensor_type;location;lat;lon;timestamp;pressure;altitude;pressure_sealevel;temperature;humidity
80382;BME280;69692;55.820;37.490;2024-03-07T00:00:06;100708.19;;;-3.69;49.59
80382;BME280;69692;55.820;37.490;2024-03-07T00:02:41;100717.13;;;-3.72;50.80
80382;BME280;69692;55.820;37.490;2024-03-07T00:05:08;100709.06;;;-3.81;52.44
80382;BME280;69692;55.820;37.490;2024-03-07T00:07:34;100712.28;;;-4.02;52.69
80382;BME280;69692;55.820;37.490;2024-03-07T00:10:01;100704.97;;;-4.09;53.22
80382;BME280;69692;55.820;37.490;2024-03-07T00:12:30;100701.56;;;-4.23;53.87
80382;BME280;69692;55.820;37.490;2024-03-07T00:14:57;100703.25;;;-4.34;53.83
80382;BME280;69692;55.820;37.490;2024-03-07T00:17:23;100704.22;;;-4.35;54.37
80382;BME280;69692;55.820;37.490;2024-03-07T00:19:49;100703.50;;;-4.50;53.85
80382;BME280;69692;55.820;37.490;2024-03-07T00:22:15;100700.78;;;-4.48;53.59
80382;BME280;69692;55.820;37.490;2024-03-07T00:24:41;100695.41;;;-4.47;53.47
80382;BME280;69692;55.820;37.490;2024-03-07T00:27:10;100697.84;;;-4.44;53.42
80382;BME280;69692;55.820;37.490;2024-03-07T00:29:36;100698.56;;;-4.42;53.81
80382;BME280;69692;55.820;37.490;2024-03-07T00:32:04;100694.75;;;-4.38;53.99
80382;BME280;69692;55.820;37.490;2024-03-07T00:34:30;100694.31;;;-4.32;53.77
80382;BME280;69692;55.820;37.490;2024-03-07T00:36:55;100694.44;;;-4.33;53.97
80382;BME280;69692;55.820;37.490;2024-03-07T00:39:25;100683.50;;;-4.27;52.77
80382;BME280;69692;55.820;37.490;2024-03-07T00:41:51;100685.41;;;-4.29;52.87
80382;BME280;69692;55.820;37.490;2024-03-07T00:44:17;100686.13;;;-4.27;53.18
80382;BME280;69692;55.820;37.490;2024-03-07T00:46:43;100686.88;;;-4.38;52.87
80382;BME280;69692;55.820;37.490;2024-03-07T00:49:09;100692.78;;;-4.47;53.59
80382;BME280;69692;55.820;37.490;2024-03-07T00:51:35;100684.72;;;-4.57;53.31
80382;BME280;69692;55.820;37.490;2024-03-07T00:54:01;100685.69;;;-4.58;54.67
80382;BME280;69692;55.820;37.490;2024-03-07T00:56:27;100684.13;;;-4.60;54.22
80382;BME280;69692;55.820;37.490;2024-03-07T00:58:54;100677.25;;;-4.50;53.41
80382;BME280;69692;55.820;37.490;2024-03-07T01:01:20;100675.16;;;-4.45;52.51
80382;BME280;69692;55.820;37.490;2024-03-07T01:03:46;100674.31;;;-4.45;53.06
80382;BME280;69692;55.820;37.490;2024-03-07T01:06:12;100673.56;;;-4.47;52.35
80382;BME280;69692;55.820;37.490;2024-03-07T01:08:39;100675.78;;;-4.54;52.85
80382;BME280;69692;55.820;37.490;2024-03-07T01:11:05;100675.19;;;-4.58;53.83
80382;BME280;69692;55.820;37.490;2024-03-07T01:13:38;100681.91;;;-4.66;53.73
80382;BME280;69692;55.820;37.490;2024-03-07T01:16:05;100679.94;;;-4.75;54.24
80382;BME280;69692;55.820;37.490;2024-03-07T01:18:31;100676.16;;;-4.71;53.52
80382;BME280;69692;55.820;37.490;2024-03-07T01:21:02;100672.91;;;-4.75;53.43
80382;BME280;69692;55.820;37.490;2024-03-07T01:23:28;100679.63;;;-4.84;54.47
80382;BME280;69692;55.820;37.490;2024-03-07T01:25:58;100670.69;;;-4.81;53.62
80382;BME280;69692;55.820;37.490;2024-03-07T01:28:25;100671.31;;;-4.77;53.39
80382;BME280;69692;55.820;37.490;2024-03-07T01:30:57;100667.31;;;-4.70;53.47
80382;BME280;69692;55.820;37.490;2024-03-07T01:33:24;100669.72;;;-4.67;52.91
80382;BME280;69692;55.820;37.490;2024-03-07T01:35:50;100663.94;;;-4.60;52.95
80382;BME280;69692;55.820;37.490;2024-03-07T01:38:17;100672.94;;;-4.51;53.33
80382;BME280;69692;55.820;37.490;2024-03-07T01:40:44;100663.38;;;-4.52;53.00
80382;BME280;69692;55.820;37.490;2024-03-07T01:43:10;100661.31;;;-4.60;52.66
80382;BME280;69692;55.820;37.490;2024-03-07T01:45:37;100662.47;;;-4.76;52.79
80382;BME280;69692;55.820;37.490;2024-03-07T01:48:09;100662.41;;;-4.75;53.54
80382;BME280;69692;55.820;37.490;2024-03-07T01:50:35;100657.78;;;-4.71;53.46
80382;BME280;69692;55.820;37.490;2024-03-07T01:53:05;100656.38;;;-4.64;51.92
80382;BME280;69692;55.820;37.490;2024-03-07T01:55:33;100655.00;;;-4.57;51.14
80382;BME280;69692;55.820;37.490;2024-03-07T01:57:59;100655.50;;;-4.52;50.96
80382;BME280;69692;55.820;37.490;2024-03-07T02:00:27;100658.75;;;-4.48;50.00
80382;BME280;69692;55.820;37.490;2024-03-07T02:02:53;100648.25;;;-4.48;49.57
80382;BME280;69692;55.820;37.490;2024-03-07T02:05:22;100655.28;;;-4.49;51.60
80382;BME280;69692;55.820;37.490;2024-03-07T02:07:50;100649.09;;;-4.48;50.69
80382;BME280;69692;55.820;37.490;2024-03-07T02:10:16;100655.41;;;-4.51;52.11
80382;BME280;69692;55.820;37.490;2024-03-07T02:12:44;100648.97;;;-4.46;49.56
80382;BME280;69692;55.820;37.490;2024-03-07T02:15:13;100647.41;;;-4.49;49.88
80382;BME280;69692;55.820;37.490;2024-03-07T02:17:40;100637.84;;;-4.50;51.36
80382;BME280;69692;55.820;37.490;2024-03-07T02:20:06;100639.75;;;-4.52;51.58
80382;BME280;69692;55.820;37.490;2024-03-07T02:22:33;100630.84;;;-4.62;50.93
80382;BME280;69692;55.820;37.490;2024-03-07T02:24:59;100640.50;;;-4.63;52.59
80382;BME280;69692;55.820;37.490;2024-03-07T02:27:25;100633.69;;;-4.65;53.07
80382;BME280;69692;55.820;37.490;2024-03-07T02:29:51;100637.28;;;-4.79;53.17
80382;BME280;69692;55.820;37.490;2024-03-07T02:32:17;100641.66;;;-4.91;52.95
80382;BME280;69692;55.820;37.490;2024-03-07T02:34:43;100635.34;;;-5.01;53.37
80382;BME280;69692;55.820;37.490;2024-03-07T02:37:09;100627.47;;;-5.01;52.06
80382;BME280;69692;55.820;37.490;2024-03-07T02:39:38;100636.69;;;-5.08;53.08
80382;BME280;69692;55.820;37.490;2024-03-07T02:42:04;100633.78;;;-5.16;52.23
80382;BME280;69692;55.820;37.490;2024-03-07T02:44:30;100633.78;;;-5.29;52.71
80382;BME280;69692;55.820;37.490;2024-03-07T02:46:58;100632.94;;;-5.29;53.64
80382;BME280;69692;55.820;37.490;2024-03-07T02:49:24;100624.25;;;-5.30;53.43
80382;BME280;69692;55.820;37.490;2024-03-07T02:51:49;100628.22;;;-5.24;53.47
80382;BME280;69692;55.820;37.490;2024-03-07T02:54:15;100635.78;;;-5.32;53.12
80382;BME280;69692;55.820;37.490;2024-03-07T02:56:41;100631.75;;;-5.51;53.32
80382;BME280;69692;55.820;37.490;2024-03-07T02:59:07;100631.34;;;-5.70;53.27
80382;BME280;69692;55.820;37.490;2024-03-07T03:01:33;100627.88;;;-5.71;54.20
80382;BME280;69692;55.820;37.490;2024-03-07T03:03:59;100632.59;;;-5.76;54.77
80382;BME280;69692;55.820;37.490;2024-03-07T03:06:24;100631.88;;;-5.65;54.70
80382;BME280;69692;55.820;37.490;2024-03-07T03:08:50;100636.06;;;-5.62;54.46
80382;BME280;69692;55.820;37.490;2024-03-07T03:11:18;100631.47;;;-5.59;54.11
80382;BME280;69692;55.820;37.490;2024-03-07T03:13:43;100620.03;;;-5.58;53.10
80382;BME280;69692;55.820;37.490;2024-03-07T03:16:12;100623.81;;;-5.49;52.44
80382;BME280;69692;55.820;37.490;2024-03-07T03:18:39;100623.47;;;-5.70;53.28
80382;BME280;69692;55.820;37.490;2024-03-07T03:21:05;100619.78;;;-5.67;54.01
80382;BME280;69692;55.820;37.490;2024-03-07T03:23:31;100628.31;;;-5.51;53.33
80382;BME280;69692;55.820;37.490;2024-03-07T03:25:57;100623.72;;;-5.48;53.32
80382;BME280;69692;55.820;37.490;2024-03-07T03:28:23;100617.41;;;-5.45;53.30
80382;BME280;69692;55.820;37.490;2024-03-07T03:30:50;100619.22;;;-5.33;52.88
80382;BME280;69692;55.820;37.490;2024-03-07T03:33:18;100614.25;;;-5.25;53.51
80382;BME280;69692;55.820;37.490;2024-03-07T03:35:47;100615.81;;;-5.22;53.23
80382;BME280;69692;55.820;37.490;2024-03-07T03:38:13;100618.56;;;-5.24;52.93
80382;BME280;69692;55.820;37.490;2024-03-07T03:40:39;100612.47;;;-5.24;53.25
80382;BME280;69692;55.820;37.490;2024-03-07T03:43:05;100623.72;;;-5.35;53.78
80382;BME280;69692;55.820;37.490;2024-03-07T03:45:31;100631.38;;;-5.32;54.28
80382;BME280;69692;55.820;37.490;2024-03-07T03:47:59;100622.13;;;-5.37;52.82
80382;BME280;69692;55.820;37.490;2024-03-07T03:50:25;100618.66;;;-5.38;53.90
80382;BME280;69692;55.820;37.490;2024-03-07T03:52:52;100612.19;;;-5.45;53.61
80382;BME280;69692;55.820;37.490;2024-03-07T03:55:18;100615.94;;;-5.36;53.59
80382;BME280;69692;55.820;37.490;2024-03-07T03:57:46;100616.25;;;-5.28;53.43
80382;BME280;69692;55.820;37.490;2024-03-07T04:00:14;100608.19;;;-5.25;53.06
80382;BME280;69692;55.820;37.490;2024-03-07T04:02:43;100606.50;;;-5.14;51.57
80382;BME280;69692;55.820;37.490;2024-03-07T04:05:11;100613.81;;;-5.06;51.27
80382;BME280;69692;55.820;37.490;2024-03-07T04:07:37;100601.75;;;-4.96;49.54
80382;BME280;69692;55.820;37.490;2024-03-07T04:10:04;100596.28;;;-4.93;49.18
80382;BME280;69692;55.820;37.490;2024-03-07T04:12:39;100599.44;;;-4.88;49.36
80382;BME280;69692;55.820;37.490;2024-03-07T04:15:14;100593.25;;;-4.87;49.54
80382;BME280;69692;55.820;37.490;2024-03-07T04:17:43;100593.75;;;-4.82;49.07
80382;BME280;69692;55.820;37.490;2024-03-07T04:20:11;100591.53;;;-4.75;48.64
80382;BME280;69692;55.820;37.490;2024-03-07T04:22:39;100593.81;;;-4.70;48.10
80382;BME280;69692;55.820;37.490;2024-03-07T04:25:06;100592.66;;;-4.66;48.48
80382;BME280;69692;55.820;37.490;2024-03-07T04:27:34;100590.03;;;-4.66;47.98
80382;BME280;69692;55.820;37.490;2024-03-07T04:30:04;100595.03;;;-4.63;47.67
80382;BME280;69692;55.820;37.490;2024-03-07T04:32:31;100593.06;;;-4.60;47.66
80382;BME280;69692;55.820;37.490;2024-03-07T04:34:57;100591.28;;;-4.59;47.67
80382;BME280;69692;55.820;37.490;2024-03-07T04:37:23;100595.22;;;-4.54;47.64
80382;BME280;69692;55.820;37.490;2024-03-07T04:39:49;100589.13;;;-4.54;48.14
80382;BME280;69692;55.820;37.490;2024-03-07T04:42:15;100591.44;;;-4.50;47.49
80382;BME280;69692;55.820;37.490;2024-03-07T04:44:41;100594.56;;;-4.44;47.54
80382;BME280;69692;55.820;37.490;2024-03-07T04:47:08;100592.91;;;-4.45;47.21
80382;BME280;69692;55.820;37.490;2024-03-07T04:49:34;100596.63;;;-4.37;46.70
80382;BME280;69692;55.820;37.490;2024-03-07T04:52:02;100587.38;;;-4.30;46.35
80382;BME280;69692;55.820;37.490;2024-03-07T04:54:29;100584.75;;;-4.30;46.42
80382;BME280;69692;55.820;37.490;2024-03-07T04:56:57;100589.53;;;-4.24;46.63
80382;BME280;69692;55.820;37.490;2024-03-07T04:59:23;100581.72;;;-4.12;46.00
80382;BME280;69692;55.820;37.490;2024-03-07T05:01:49;100590.06;;;-4.07;45.75
80382;BME280;69692;55.820;37.490;2024-03-07T05:04:16;100591.69;;;-3.94;45.61
80382;BME280;69692;55.820;37.490;2024-03-07T05:06:43;100591.50;;;-3.79;45.41
80382;BME280;69692;55.820;37.490;2024-03-07T05:09:10;100589.84;;;-3.69;44.63
80382;BME280;69692;55.820;37.490;2024-03-07T05:11:51;100588.63;;;-3.76;44.86
80382;BME280;69692;55.820;37.490;2024-03-07T05:14:20;100587.09;;;-3.68;44.54
80382;BME280;69692;55.820;37.490;2024-03-07T05:16:47;100584.38;;;-3.55;44.64
80382;BME280;69692;55.820;37.490;2024-03-07T05:19:35;100576.25;;;-3.52;45.43
80382;BME280;69692;55.820;37.490;2024-03-07T05:22:01;100577.22;;;-3.42;44.49
80382;BME280;69692;55.820;37.490;2024-03-07T05:24:31;100570.25;;;-3.43;45.30
80382;BME280;69692;55.820;37.490;2024-03-07T05:26:58;100578.06;;;-3.30;45.03
80382;BME280;69692;55.820;37.490;2024-03-07T05:29:24;100577.47;;;-3.11;44.14
80382;BME280;69692;55.820;37.490;2024-03-07T05:31:50;100581.78;;;-3.10;43.77
80382;BME280;69692;55.820;37.490;2024-03-07T05:34:16;100579.97;;;-2.98;44.51
80382;BME280;69692;55.820;37.490;2024-03-07T05:36:46;100571.22;;;-2.88;43.20
80382;BME280;69692;55.820;37.490;2024-03-07T05:39:13;100567.88;;;-2.67;43.07
80382;BME280;69692;55.820;37.490;2024-03-07T05:41:41;100560.94;;;-2.36;42.29
80382;BME280;69692;55.820;37.490;2024-03-07T05:44:08;100551.72;;;-2.10;41.62
80382;BME280;69692;55.820;37.490;2024-03-07T05:46:41;100554.97;;;-1.86;41.22
80382;BME280;69692;55.820;37.490;2024-03-07T05:49:12;100552.31;;;-2.06;40.81
80382;BME280;69692;55.820;37.490;2024-03-07T05:51:38;100550.81;;;-2.20;41.27
80382;BME280;69692;55.820;37.490;2024-03-07T05:54:04;100550.16;;;-2.33;40.98
80382;BME280;69692;55.820;37.490;2024-03-07T05:56:33;100553.91;;;-2.47;41.59
80382;BME280;69692;55.820;37.490;2024-03-07T05:59:05;100549.88;;;-2.51;41.38
80382;BME280;69692;55.820;37.490;2024-03-07T06:01:39;100554.03;;;-2.49;41.87
80382;BME280;69692;55.820;37.490;2024-03-07T06:04:06;100554.22;;;-2.41;42.42
80382;BME280;69692;55.820;37.490;2024-03-07T06:06:33;100558.22;;;-2.46;42.32
80382;BME280;69692;55.820;37.490;2024-03-07T06:09:01;100549.88;;;-1.98;41.93
80382;BME280;69692;55.820;37.490;2024-03-07T06:11:37;100541.41;;;-1.30;40.36
80382;BME280;69692;55.820;37.490;2024-03-07T06:14:03;100542.16;;;-0.68;38.70
80382;BME280;69692;55.820;37.490;2024-03-07T06:16:35;100548.47;;;-0.11;37.93
80382;BME280;69692;55.820;37.490;2024-03-07T06:19:03;100536.16;;;0.36;36.90
80382;BME280;69692;55.820;37.490;2024-03-07T06:21:30;100531.97;;;0.80;36.33
80382;BME280;69692;55.820;37.490;2024-03-07T06:23:59;100527.41;;;1.00;35.37
80382;BME280;69692;55.820;37.490;2024-03-07T06:26:33;100526.63;;;1.17;35.29
80382;BME280;69692;55.820;37.490;2024-03-07T06:29:34;100523.75;;;1.11;35.12
80382;BME280;69692;55.820;37.490;2024-03-07T06:32:00;100522.19;;;1.36;35.02
80382;BME280;69692;55.820;37.490;2024-03-07T06:34:27;100515.63;;;1.58;33.74
80382;BME280;69692;55.820;37.490;2024-03-07T06:36:55;100523.09;;;1.62;34.26
80382;BME280;69692;55.820;37.490;2024-03-07T06:39:21;100524.09;;;1.97;33.96
80382;BME280;69692;55.820;37.490;2024-03-07T06:41:47;100522.41;;;2.65;33.08
80382;BME280;69692;55.820;37.490;2024-03-07T06:44:14;100513.75;;;2.97;31.95
80382;BME280;69692;55.820;37.490;2024-03-07T06:46:40;100513.22;;;3.36;31.46
80382;BME280;69692;55.820;37.490;2024-03-07T06:49:06;100507.97;;;3.61;30.57
80382;BME280;69692;55.820;37.490;2024-03-07T06:51:36;100508.31;;;4.23;30.25
80382;BME280;69692;55.820;37.490;2024-03-07T06:54:03;100500.72;;;4.67;29.71
80382;BME280;69692;55.820;37.490;2024-03-07T06:56:29;100494.56;;;4.66;29.21
80382;BME280;69692;55.820;37.490;2024-03-07T06:58:56;100495.41;;;4.59;29.68
80382;BME280;69692;55.820;37.490;2024-03-07T07:01:22;100498.75;;;4.44;29.02
80382;BME280;69692;55.820;37.490;2024-03-07T07:06:34;100494.91;;;4.63;29.28
80382;BME280;69692;55.820;37.490;2024-03-07T07:09:00;100495.56;;;4.57;29.57
80382;BME280;69692;55.820;37.490;2024-03-07T07:11:28;100493.63;;;4.35;30.37
80382;BME280;69692;55.820;37.490;2024-03-07T07:13:54;100486.13;;;4.38;29.91
80382;BME280;69692;55.820;37.490;2024-03-07T07:16:20;100488.13;;;4.36;30.07
80382;BME280;69692;55.820;37.490;2024-03-07T07:18:46;100481.31;;;4.34;30.30
80382;BME280;69692;55.820;37.490;2024-03-07T07:21:12;100479.34;;;4.83;30.41
80382;BME280;69692;55.820;37.490;2024-03-07T07:23:41;100487.00;;;5.17;29.26
80382;BME280;69692;55.820;37.490;2024-03-07T07:26:07;100490.97;;;5.75;28.88
80382;BME280;69692;55.820;37.490;2024-03-07T07:28:34;100475.88;;;5.90;28.23
80382;BME280;69692;55.820;37.490;2024-03-07T07:31:02;100478.34;;;5.92;28.39
80382;BME280;69692;55.820;37.490;2024-03-07T07:33:28;100477.16;;;5.72;28.61
80382;BME280;69692;55.820;37.490;2024-03-07T07:35:53;100477.47;;;6.00;29.03
80382;BME280;69692;55.820;37.490;2024-03-07T07:38:19;100472.41;;;6.05;28.36
80382;BME280;69692;55.820;37.490;2024-03-07T07:40:45;100468.44;;;5.78;28.86
80382;BME280;69692;55.820;37.490;2024-03-07T07:43:11;100466.47;;;5.72;29.21
80382;BME280;69692;55.820;37.490;2024-03-07T07:45:39;100465.53;;;5.64;28.76
80382;BME280;69692;55.820;37.490;2024-03-07T07:48:05;100466.78;;;5.54;28.96
80382;BME280;69692;55.820;37.490;2024-03-07T07:50:31;100461.25;;;5.32;29.98
80382;BME280;69692;55.820;37.490;2024-03-07T07:53:00;100462.47;;;5.53;28.68
80382;BME280;69692;55.820;37.490;2024-03-07T07:55:27;100459.13;;;5.74;29.99
80382;BME280;69692;55.820;37.490;2024-03-07T07:57:57;100455.75;;;6.03;29.06
80382;BME280;69692;55.820;37.490;2024-03-07T08:00:25;100456.19;;;6.06;29.46
80382;BME280;69692;55.820;37.490;2024-03-07T08:03:02;100454.09;;;6.16;28.67
80382;BME280;69692;55.820;37.490;2024-03-07T08:05:32;100442.31;;;6.11;29.46
80382;BME280;69692;55.820;37.490;2024-03-07T08:08:04;100444.34;;;6.23;29.18
80382;BME280;69692;55.820;37.490;2024-03-07T08:10:33;100428.50;;;6.51;29.34
80382;BME280;69692;55.820;37.490;2024-03-07T08:13:00;100434.59;;;6.45;28.41
80382;BME280;69692;55.820;37.490;2024-03-07T08:15:27;100434.13;;;6.27;29.51
80382;BME280;69692;55.820;37.490;2024-03-07T08:17:57;100435.97;;;6.26;29.20
80382;BME280;69692;55.820;37.490;2024-03-07T08:20:24;100423.69;;;6.03;30.39
80382;BME280;69692;55.820;37.490;2024-03-07T08:22:53;100426.16;;;6.04;30.57
80382;BME280;69692;55.820;37.490;2024-03-07T08:25:21;100427.25;;;5.72;30.24
80382;BME280;69692;55.820;37.490;2024-03-07T08:27:50;100423.00;;;5.63;31.38
80382;BME280;69692;55.820;37.490;2024-03-07T08:30:16;100419.53;;;5.39;31.25
80382;BME280;69692;55.820;37.490;2024-03-07T08:32:45;100417.50;;;5.42;31.52
80382;BME280;69692;55.820;37.490;2024-03-07T08:35:12;100421.81;;;5.20;31.45
80382;BME280;69692;55.820;37.490;2024-03-07T08:37:39;100424.63;;;4.95;31.93
80382;BME280;69692;55.820;37.490;2024-03-07T08:40:07;100421.06;;;5.03;31.69
80382;BME280;69692;55.820;37.490;2024-03-07T08:42:36;100414.28;;;5.23;31.54
80382;BME280;69692;55.820;37.490;2024-03-07T08:45:03;100410.88;;;5.37;31.53
80382;BME280;69692;55.820;37.490;2024-03-07T08:47:37;100410.31;;;5.19;31.23
80382;BME280;69692;55.820;37.490;2024-03-07T08:50:04;100412.78;;;4.98;32.74
80382;BME280;69692;55.820;37.490;2024-03-07T08:52:35;100408.34;;;5.13;32.68
80382;BME280;69692;55.820;37.490;2024-03-07T08:55:06;100401.66;;;5.17;32.46
80382;BME280;69692;55.820;37.490;2024-03-07T08:57:36;100406.44;;;4.99;32.85
80382;BME280;69692;55.820;37.490;2024-03-07T09:00:06;100409.72;;;5.09;32.61
80382;BME280;69692;55.820;37.490;2024-03-07T09:02:38;100407.16;;;4.93;32.86
80382;BME280;69692;55.820;37.490;2024-03-07T09:05:05;100396.31;;;4.94;32.63
80382;BME280;69692;55.820;37.490;2024-03-07T09:07:32;100390.97;;;5.17;32.48
80382;BME280;69692;55.820;37.490;2024-03-07T09:09:58;100393.47;;;5.42;31.98
80382;BME280;69692;55.820;37.490;2024-03-07T09:12:24;100394.00;;;5.60;32.58
80382;BME280;69692;55.820;37.490;2024-03-07T09:14:53;100384.59;;;5.64;32.46
80382;BME280;69692;55.820;37.490;2024-03-07T09:17:21;100388.38;;;5.55;32.29
80382;BME280;69692;55.820;37.490;2024-03-07T09:19:47;100387.03;;;5.74;31.87
80382;BME280;69692;55.820;37.490;2024-03-07T09:22:13;100383.72;;;5.72;32.45
80382;BME280;69692;55.820;37.490;2024-03-07T09:24:39;100378.66;;;5.77;32.76
80382;BME280;69692;55.820;37.490;2024-03-07T09:27:05;100377.81;;;5.76;32.46
80382;BME280;69692;55.820;37.490;2024-03-07T09:29:31;100377.19;;;5.36;33.37
80382;BME280;69692;55.820;37.490;2024-03-07T09:31:57;100377.34;;;5.58;32.51
80382;BME280;69692;55.820;37.490;2024-03-07T09:34:24;100371.06;;;5.28;31.96
80382;BME280;69692;55.820;37.490;2024-03-07T09:36:51;100369.94;;;5.45;33.19
80382;BME280;69692;55.820;37.490;2024-03-07T09:39:18;100357.84;;;5.72;31.80
80382;BME280;69692;55.820;37.490;2024-03-07T09:41:44;100359.34;;;5.89;32.32
80382;BME280;69692;55.820;37.490;2024-03-07T09:44:15;100357.94;;;5.79;31.74
80382;BME280;69692;55.820;37.490;2024-03-07T09:46:50;100368.09;;;5.46;32.06
80382;BME280;69692;55.820;37.490;2024-03-07T09:49:17;100363.66;;;5.15;32.79
80382;BME280;69692;55.820;37.490;2024-03-07T09:51:47;100367.63;;;5.19;32.69
80382;BME280;69692;55.820;37.490;2024-03-07T09:54:26;100366.84;;;5.33;32.32
80382;BME280;69692;55.820;37.490;2024-03-07T09:56:53;100364.03;;;5.73;32.12
80382;BME280;69692;55.820;37.490;2024-03-07T09:59:20;100357.47;;;6.27;31.28
80382;BME280;69692;55.820;37.490;2024-03-07T10:01:53;100360.59;;;6.16;31.08
80382;BME280;69692;55.820;37.490;2024-03-07T10:04:29;100351.31;;;6.78;30.78
80382;BME280;69692;55.820;37.490;2024-03-07T10:06:57;100348.28;;;7.02;29.77
80382;BME280;69692;55.820;37.490;2024-03-07T10:09:23;100348.00;;;7.40;29.67
80382;BME280;69692;55.820;37.490;2024-03-07T10:11:59;100349.03;;;7.60;28.93
80382;BME280;69692;55.820;37.490;2024-03-07T10:14:25;100351.84;;;7.09;29.59
80382;BME280;69692;55.820;37.490;2024-03-07T10:16:54;100347.13;;;7.33;30.09
80382;BME280;69692;55.820;37.490;2024-03-07T10:19:24;100344.06;;;7.36;29.89
80382;BME280;69692;55.820;37.490;2024-03-07T10:21:50;100338.97;;;7.97;28.87
80382;BME280;69692;55.820;37.490;2024-03-07T10:24:24;100344.09;;;7.92;28.66
80382;BME280;69692;55.820;37.490;2024-03-07T10:26:50;100341.41;;;8.20;28.78
80382;BME280;69692;55.820;37.490;2024-03-07T10:29:17;100333.34;;;8.61;28.33
80382;BME280;69692;55.820;37.490;2024-03-07T10:31:44;100332.00;;;8.85;28.13
80382;BME280;69692;55.820;37.490;2024-03-07T10:34:11;100333.19;;;8.76;27.84
80382;BME280;69692;55.820;37.490;2024-03-07T10:36:37;100323.78;;;8.45;28.29
80382;BME280;69692;55.820;37.490;2024-03-07T10:39:05;100328.75;;;8.07;29.02
80382;BME280;69692;55.820;37.490;2024-03-07T10:41:46;100320.44;;;7.67;29.31
80382;BME280;69692;55.820;37.490;2024-03-07T10:44:30;100331.47;;;7.30;30.79
80382;BME280;69692;55.820;37.490;2024-03-07T10:46:58;100328.34;;;6.69;30.74
80382;BME280;69692;55.820;37.490;2024-03-07T10:49:33;100324.22;;;6.01;32.41
80382;BME280;69692;55.820;37.490;2024-03-07T10:54:35;100317.38;;;5.83;32.07
80382;BME280;69692;55.820;37.490;2024-03-07T10:57:23;100316.34;;;5.69;33.04
80382;BME280;69692;55.820;37.490;2024-03-07T10:59:57;100315.91;;;5.43;33.27
80382;BME280;69692;55.820;37.490;2024-03-07T11:04:54;100310.66;;;4.89;35.45
80382;BME280;69692;55.820;37.490;2024-03-07T11:07:22;100300.88;;;4.59;34.81
80382;BME280;69692;55.820;37.490;2024-03-07T11:09:51;100296.72;;;4.25;35.60
80382;BME280;69692;55.820;37.490;2024-03-07T11:12:24;100295.06;;;4.55;35.52
80382;BME280;69692;55.820;37.490;2024-03-07T11:14:54;100296.09;;;4.77;35.31
80382;BME280;69692;55.820;37.490;2024-03-07T11:17:22;100292.69;;;4.91;34.67
80382;BME280;69692;55.820;37.490;2024-03-07T11:19:48;100280.03;;;5.08;34.43
80382;BME280;69692;55.820;37.490;2024-03-07T11:22:31;100285.50;;;4.92;34.53
80382;BME280;69692;55.820;37.490;2024-03-07T11:25:02;100285.31;;;4.93;34.46
80382;BME280;69692;55.820;37.490;2024-03-07T11:27:51;100288.47;;;4.97;35.54
80382;BME280;69692;55.820;37.490;2024-03-07T11:30:17;100286.38;;;4.84;35.59
80382;BME280;69692;55.820;37.490;2024-03-07T11:32:43;100278.75;;;4.81;34.48
80382;BME280;69692;55.820;37.490;2024-03-07T11:35:13;100276.97;;;4.42;35.37
80382;BME280;69692;55.820;37.490;2024-03-07T11:37:43;100276.06;;;4.58;35.27
80382;BME280;69692;55.820;37.490;2024-03-07T11:40:14;100275.41;;;4.56;35.85
80382;BME280;69692;55.820;37.490;2024-03-07T11:43:00;100274.63;;;4.47;36.02
80382;BME280;69692;55.820;37.490;2024-03-07T11:45:31;100275.03;;;4.59;36.50
80382;BME280;69692;55.820;37.490;2024-03-07T11:48:04;100266.38;;;4.34;35.94
80382;BME280;69692;55.820;37.490;2024-03-07T11:50:38;100275.97;;;4.43;36.17
80382;BME280;69692;55.820;37.490;2024-03-07T11:53:06;100274.22;;;4.59;35.87
80382;BME280;69692;55.820;37.490;2024-03-07T11:55:36;100270.13;;;4.48;36.25
80382;BME280;69692;55.820;37.490;2024-03-07T11:58:16;100265.84;;;4.39;36.56
80382;BME280;69692;55.820;37.490;2024-03-07T12:00:46;100264.75;;;4.56;36.46
80382;BME280;69692;55.820;37.490;2024-03-07T12:03:16;100252.44;;;4.55;36.68
80382;BME280;69692;55.820;37.490;2024-03-07T12:05:44;100253.72;;;4.59;36.07
80382;BME280;69692;55.820;37.490;2024-03-07T12:08:12;100252.09;;;4.81;35.75
80382;BME280;69692;55.820;37.490;2024-03-07T12:10:39;100248.59;;;5.18;34.87
80382;BME280;69692;55.820;37.490;2024-03-07T12:13:06;100246.13;;;5.31;34.28
80382;BME280;69692;55.820;37.490;2024-03-07T12:15:33;100239.09;;;5.38;35.08
80382;BME280;69692;55.820;37.490;2024-03-07T12:18:01;100241.47;;;5.63;33.94
80382;BME280;69692;55.820;37.490;2024-03-07T12:20:27;100235.81;;;5.95;33.60
80382;BME280;69692;55.820;37.490;2024-03-07T12:23:00;100232.53;;;6.15;33.26
80382;BME280;69692;55.820;37.490;2024-03-07T12:25:29;100230.78;;;6.07;33.24
80382;BME280;69692;55.820;37.490;2024-03-07T12:28:09;100233.19;;;5.87;33.47
80382;BME280;69692;55.820;37.490;2024-03-07T12:30:52;100232.66;;;5.92;33.91
80382;BME280;69692;55.820;37.490;2024-03-07T12:33:20;100224.75;;;5.98;34.39
80382;BME280;69692;55.820;37.490;2024-03-07T12:35:50;100226.44;;;6.21;33.14
80382;BME280;69692;55.820;37.490;2024-03-07T12:38:21;100226.38;;;6.14;33.67
80382;BME280;69692;55.820;37.490;2024-03-07T12:41:09;100216.72;;;6.13;33.07
80382;BME280;69692;55.820;37.490;2024-03-07T12:43:42;100220.91;;;6.22;33.78
80382;BME280;69692;55.820;37.490;2024-03-07T12:46:10;100211.41;;;5.98;34.68
80382;BME280;69692;55.820;37.490;2024-03-07T12:48:38;100213.25;;;5.98;34.29
80382;BME280;69692;55.820;37.490;2024-03-07T12:51:04;100206.69;;;5.71;33.91
80382;BME280;69692;55.820;37.490;2024-03-07T12:53:31;100208.16;;;5.59;34.32
80382;BME280;69692;55.820;37.490;2024-03-07T12:55:57;100206.97;;;5.47;34.05
80382;BME280;69692;55.820;37.490;2024-03-07T12:58:23;100201.09;;;5.36;35.14